sensor_id;sensor_type;location;lat;lon;timestamp;P1;durP1;ratioP1;P2;durP2;ratioP2
17858;SDS011;35426;30.698;104.050;2023-07-29T00:00:10;20.55;;;12.68;;
17858;SDS011;35426;30.698;104.050;2023-07-29T00:02:43;18.73;;;13.35;;
17858;SDS011;35426;30.698;104.050;2023-07-29T00:05:16;19.70;;;13.30;;
17858;SDS011;35426;30.698;104.050;2023-07-29T00:07:50;19.15;;;12.90;;
17858;SDS011;35426;30.698;104.050;2023-07-29T00:10:23;19.40;;;12.80;;
17858;SDS011;35426;30.698;104.050;2023-07-29T00:12:57;18.20;;;12.95;;
17858;SDS011;35426;30.698;104.050;2023-07-29T00:15:35;17.42;;;11.73;;
17858;SDS011;35426;30.698;104.050;2023-07-29T00:18:08;18.40;;;10.88;;
17858;SDS011;35426;30.698;104.050;2023-07-29T00:20:42;16.33;;;10.82;;
17858;SDS011;35426;30.698;104.050;2023-07-29T00:23:17;16.08;;;11.20;;
17858;SDS011;35426;30.698;104.050;2023-07-29T00:25:50;21.02;;;11.95;;
17858;SDS011;35426;30.698;104.050;2023-07-29T00:28:23;19.70;;;13.00;;
17858;SDS011;35426;30.698;104.050;2023-07-29T00:31:01;18.20;;;12.77;;
17858;SDS011;35426;30.698;104.050;2023-07-29T00:33:34;17.15;;;10.95;;
17858;SDS011;35426;30.698;104.050;2023-07-29T00:36:09;12.45;;;10.35;;
17858;SDS011;35426;30.698;104.050;2023-07-29T00:38:42;16.77;;;11.57;;
17858;SDS011;35426;30.698;104.050;2023-07-29T00:41:15;17.83;;;10.52;;
17858;SDS011;35426;30.698;104.050;2023-07-29T00:43:49;17.73;;;12.48;;
17858;SDS011;35426;30.698;104.050;2023-07-29T00:46:24;20.75;;;13.52;;
17858;SDS011;35426;30.698;104.050;2023-07-29T00:48:59;17.95;;;12.90;;
17858;SDS011;35426;30.698;104.050;2023-07-29T00:51:33;20.80;;;13.43;;
17858;SDS011;35426;30.698;104.050;2023-07-29T00:54:07;17.27;;;12.38;;
17858;SDS011;35426;30.698;104.050;2023-07-29T00:56:43;16.55;;;12.88;;
17858;SDS011;35426;30.698;104.050;2023-07-29T00:59:18;18.10;;;12.00;;
17858;SDS011;35426;30.698;104.050;2023-07-29T01:01:54;15.80;;;10.60;;
17858;SDS011;35426;30.698;104.050;2023-07-29T01:04:30;17.25;;;11.93;;
17858;SDS011;35426;30.698;104.050;2023-07-29T01:07:06;21.63;;;14.50;;
17858;SDS011;35426;30.698;104.050;2023-07-29T01:09:46;17.20;;;13.77;;
17858;SDS011;35426;30.698;104.050;2023-07-29T01:12:30;23.00;;;13.73;;
17858;SDS011;35426;30.698;104.050;2023-07-29T01:15:11;18.17;;;11.90;;
17858;SDS011;35426;30.698;104.050;2023-07-29T01:17:52;20.92;;;14.73;;
17858;SDS011;35426;30.698;104.050;2023-07-29T01:20:27;22.90;;;15.43;;
17858;SDS011;35426;30.698;104.050;2023-07-29T01:23:03;23.02;;;15.52;;
17858;SDS011;35426;30.698;104.050;2023-07-29T01:25:37;23.75;;;18.02;;
17858;SDS011;35426;30.698;104.050;2023-07-29T01:28:12;21.70;;;15.52;;
17858;SDS011;35426;30.698;104.050;2023-07-29T01:30:45;18.63;;;15.20;;
17858;SDS011;35426;30.698;104.050;2023-07-29T01:33:26;24.95;;;16.38;;
17858;SDS011;35426;30.698;104.050;2023-07-29T01:36:11;23.33;;;17.63;;
17858;SDS011;35426;30.698;104.050;2023-07-29T01:38:47;30.98;;;18.27;;
17858;SDS011;35426;30.698;104.050;2023-07-29T01:41:25;28.88;;;17.10;;
17858;SDS011;35426;30.698;104.050;2023-07-29T01:44:00;23.00;;;16.77;;
17858;SDS011;35426;30.698;104.050;2023-07-29T01:46:35;24.70;;;19.17;;
17858;SDS011;35426;30.698;104.050;2023-07-29T01:49:10;27.80;;;17.80;;
17858;SDS011;35426;30.698;104.050;2023-07-29T01:51:43;22.50;;;13.65;;
17858;SDS011;35426;30.698;104.050;2023-07-29T01:54:19;21.33;;;15.15;;
17858;SDS011;35426;30.698;104.050;2023-07-29T01:56:56;22.80;;;15.48;;
17858;SDS011;35426;30.698;104.050;2023-07-29T01:59:30;16.45;;;13.25;;
17858;SDS011;35426;30.698;104.050;2023-07-29T02:02:04;21.08;;;15.13;;
17858;SDS011;35426;30.698;104.050;2023-07-29T02:04:39;20.88;;;14.73;;
17858;SDS011;35426;30.698;104.050;2023-07-29T02:07:12;29.83;;;16.55;;
17858;SDS011;35426;30.698;104.050;2023-07-29T02:09:47;20.67;;;16.63;;
17858;SDS011;35426;30.698;104.050;2023-07-29T02:12:22;23.58;;;16.33;;
17858;SDS011;35426;30.698;104.050;2023-07-29T02:14:55;24.98;;;16.70;;
17858;SDS011;35426;30.698;104.050;2023-07-29T02:17:28;22.65;;;15.95;;
17858;SDS011;35426;30.698;104.050;2023-07-29T02:20:02;24.05;;;17.35;;
17858;SDS011;35426;30.698;104.050;2023-07-29T02:22:37;22.83;;;16.50;;
17858;SDS011;35426;30.698;104.050;2023-07-29T02:25:12;19.23;;;14.82;;
17858;SDS011;35426;30.698;104.050;2023-07-29T02:27:47;21.83;;;16.52;;
17858;SDS011;35426;30.698;104.050;2023-07-29T02:30:21;24.38;;;17.70;;
17858;SDS011;35426;30.698;104.050;2023-07-29T02:32:54;24.95;;;19.48;;
17858;SDS011;35426;30.698;104.050;2023-07-29T02:35:29;26.38;;;18.85;;
17858;SDS011;35426;30.698;104.050;2023-07-29T02:38:03;27.75;;;19.95;;
17858;SDS011;35426;30.698;104.050;2023-07-29T02:40:37;33.28;;;20.92;;
17858;SDS011;35426;30.698;104.050;2023-07-29T02:43:14;29.95;;;20.30;;
17858;SDS011;35426;30.698;104.050;2023-07-29T02:45:48;32.38;;;20.52;;
17858;SDS011;35426;30.698;104.050;2023-07-29T02:48:21;37.20;;;22.83;;
17858;SDS011;35426;30.698;104.050;2023-07-29T02:50:56;34.15;;;24.48;;
17858;SDS011;35426;30.698;104.050;2023-07-29T02:53:29;34.60;;;21.98;;
17858;SDS011;35426;30.698;104.050;2023-07-29T02:56:03;30.90;;;19.95;;
17858;SDS011;35426;30.698;104.050;2023-07-29T02:58:41;27.15;;;20.63;;
17858;SDS011;35426;30.698;104.050;2023-07-29T03:01:15;27.23;;;17.33;;
17858;SDS011;35426;30.698;104.050;2023-07-29T03:03:48;32.20;;;18.27;;
17858;SDS011;35426;30.698;104.050;2023-07-29T03:06:24;25.27;;;17.75;;
17858;SDS011;35426;30.698;104.050;2023-07-29T03:08:58;27.77;;;18.27;;
17858;SDS011;35426;30.698;104.050;2023-07-29T03:11:32;31.20;;;19.02;;
17858;SDS011;35426;30.698;104.050;2023-07-29T03:14:07;28.27;;;16.85;;
17858;SDS011;35426;30.698;104.050;2023-07-29T03:16:40;27.85;;;17.10;;
17858;SDS011;35426;30.698;104.050;2023-07-29T03:19:14;26.52;;;18.15;;
17858;SDS011;35426;30.698;104.050;2023-07-29T03:21:50;25.27;;;16.27;;
17858;SDS011;35426;30.698;104.050;2023-07-29T03:24:24;32.47;;;19.05;;
17858;SDS011;35426;30.698;104.050;2023-07-29T03:26:58;24.80;;;16.20;;
17858;SDS011;35426;30.698;104.050;2023-07-29T03:29:35;28.15;;;17.45;;
17858;SDS011;35426;30.698;104.050;2023-07-29T03:32:09;29.88;;;18.67;;
17858;SDS011;35426;30.698;104.050;2023-07-29T03:34:43;28.80;;;20.83;;
17858;SDS011;35426;30.698;104.050;2023-07-29T03:37:17;30.02;;;17.88;;
17858;SDS011;35426;30.698;104.050;2023-07-29T03:39:51;35.20;;;21.25;;
17858;SDS011;35426;30.698;104.050;2023-07-29T03:42:25;34.78;;;20.73;;
17858;SDS011;35426;30.698;104.050;2023-07-29T03:45:00;33.38;;;19.85;;
17858;SDS011;35426;30.698;104.050;2023-07-29T03:47:33;28.45;;;18.42;;
17858;SDS011;35426;30.698;104.050;2023-07-29T03:50:08;29.48;;;19.65;;
17858;SDS011;35426;30.698;104.050;2023-07-29T03:52:41;27.27;;;17.48;;
17858;SDS011;35426;30.698;104.050;2023-07-29T03:55:15;30.67;;;20.02;;
17858;SDS011;35426;30.698;104.050;2023-07-29T03:57:49;28.42;;;19.50;;
17858;SDS011;35426;30.698;104.050;2023-07-29T04:00:24;28.17;;;18.80;;
17858;SDS011;35426;30.698;104.050;2023-07-29T04:02:59;27.30;;;19.25;;
17858;SDS011;35426;30.698;104.050;2023-07-29T04:05:33;33.88;;;19.90;;
17858;SDS011;35426;30.698;104.050;2023-07-29T04:08:08;36.25;;;20.13;;
17858;SDS011;35426;30.698;104.050;2023-07-29T04:10:42;29.33;;;17.48;;
17858;SDS011;35426;30.698;104.050;2023-07-29T04:13:17;32.03;;;18.60;;
17858;SDS011;35426;30.698;104.050;2023-07-29T04:15:53;26.77;;;17.95;;
17858;SDS011;35426;30.698;104.050;2023-07-29T04:18:28;29.05;;;16.40;;
17858;SDS011;35426;30.698;104.050;2023-07-29T04:21:01;28.70;;;19.75;;
17858;SDS011;35426;30.698;104.050;2023-07-29T04:23:35;27.30;;;19.83;;
17858;SDS011;35426;30.698;104.050;2023-07-29T04:26:09;25.08;;;17.40;;
17858;SDS011;35426;30.698;104.050;2023-07-29T04:28:43;22.98;;;16.23;;
17858;SDS011;35426;30.698;104.050;2023-07-29T04:31:18;25.48;;;17.50;;
17858;SDS011;35426;30.698;104.050;2023-07-29T04:33:52;25.52;;;17.52;;
17858;SDS011;35426;30.698;104.050;2023-07-29T04:36:26;20.73;;;14.35;;
17858;SDS011;35426;30.698;104.050;2023-07-29T04:39:01;23.83;;;15.95;;
17858;SDS011;35426;30.698;104.050;2023-07-29T04:41:36;23.23;;;15.15;;
17858;SDS011;35426;30.698;104.050;2023-07-29T04:44:10;21.05;;;14.10;;
17858;SDS011;35426;30.698;104.050;2023-07-29T04:46:48;25.45;;;14.85;;
17858;SDS011;35426;30.698;104.050;2023-07-29T04:49:21;21.85;;;15.35;;
17858;SDS011;35426;30.698;104.050;2023-07-29T04:52:00;22.17;;;15.82;;
17858;SDS011;35426;30.698;104.050;2023-07-29T04:54:34;23.38;;;15.93;;
17858;SDS011;35426;30.698;104.050;2023-07-29T04:57:07;23.45;;;15.75;;
17858;SDS011;35426;30.698;104.050;2023-07-29T04:59:41;22.63;;;15.73;;
17858;SDS011;35426;30.698;104.050;2023-07-29T05:02:17;26.38;;;18.20;;
17858;SDS011;35426;30.698;104.050;2023-07-29T05:04:51;23.98;;;16.67;;
17858;SDS011;35426;30.698;104.050;2023-07-29T05:07:26;23.02;;;15.02;;
17858;SDS011;35426;30.698;104.050;2023-07-29T05:09:58;21.52;;;15.68;;
17858;SDS011;35426;30.698;104.050;2023-07-29T05:12:32;24.83;;;14.82;;
17858;SDS011;35426;30.698;104.050;2023-07-29T05:15:06;23.92;;;15.85;;
17858;SDS011;35426;30.698;104.050;2023-07-29T05:17:41;24.25;;;15.85;;
17858;SDS011;35426;30.698;104.050;2023-07-29T05:20:15;30.77;;;20.85;;
17858;SDS011;35426;30.698;104.050;2023-07-29T05:22:51;30.48;;;18.75;;
17858;SDS011;35426;30.698;104.050;2023-07-29T05:25:25;29.55;;;20.13;;
17858;SDS011;35426;30.698;104.050;2023-07-29T05:28:02;22.20;;;15.80;;
17858;SDS011;35426;30.698;104.050;2023-07-29T05:30:35;24.27;;;17.33;;
17858;SDS011;35426;30.698;104.050;2023-07-29T05:33:11;27.05;;;17.98;;
17858;SDS011;35426;30.698;104.050;2023-07-29T05:35:47;23.40;;;16.40;;
17858;SDS011;35426;30.698;104.050;2023-07-29T05:38:20;24.27;;;17.13;;
17858;SDS011;35426;30.698;104.050;2023-07-29T05:40:54;21.75;;;16.33;;
17858;SDS011;35426;30.698;104.050;2023-07-29T05:43:28;29.25;;;20.50;;
17858;SDS011;35426;30.698;104.050;2023-07-29T05:46:02;26.70;;;18.35;;
17858;SDS011;35426;30.698;104.050;2023-07-29T05:48:39;26.30;;;18.17;;
17858;SDS011;35426;30.698;104.050;2023-07-29T05:51:13;24.30;;;16.85;;
17858;SDS011;35426;30.698;104.050;2023-07-29T05:53:46;22.65;;;15.18;;
17858;SDS011;35426;30.698;104.050;2023-07-29T05:56:20;23.77;;;17.92;;
17858;SDS011;35426;30.698;104.050;2023-07-29T05:58:53;25.40;;;17.35;;
17858;SDS011;35426;30.698;104.050;2023-07-29T06:01:26;20.73;;;15.70;;
17858;SDS011;35426;30.698;104.050;2023-07-29T06:04:04;21.65;;;15.15;;
17858;SDS011;35426;30.698;104.050;2023-07-29T06:06:42;20.77;;;14.13;;
17858;SDS011;35426;30.698;104.050;2023-07-29T06:09:16;17.60;;;13.10;;
17858;SDS011;35426;30.698;104.050;2023-07-29T06:11:50;18.98;;;14.13;;
17858;SDS011;35426;30.698;104.050;2023-07-29T06:14:24;19.52;;;14.07;;
17858;SDS011;35426;30.698;104.050;2023-07-29T06:16:57;17.52;;;11.30;;
17858;SDS011;35426;30.698;104.050;2023-07-29T06:19:35;17.27;;;11.27;;
17858;SDS011;35426;30.698;104.050;2023-07-29T06:22:09;19.40;;;11.40;;
17858;SDS011;35426;30.698;104.050;2023-07-29T06:24:43;15.18;;;11.38;;
17858;SDS011;35426;30.698;104.050;2023-07-29T06:27:18;14.88;;;10.10;;
17858;SDS011;35426;30.698;104.050;2023-07-29T06:29:52;13.68;;;9.73;;
17858;SDS011;35426;30.698;104.050;2023-07-29T06:32:25;15.93;;;10.02;;
17858;SDS011;35426;30.698;104.050;2023-07-29T06:35:01;13.88;;;9.60;;
17858;SDS011;35426;30.698;104.050;2023-07-29T06:37:34;14.40;;;9.25;;
17858;SDS011;35426;30.698;104.050;2023-07-29T06:40:08;13.75;;;9.82;;
17858;SDS011;35426;30.698;104.050;2023-07-29T06:42:41;11.70;;;9.13;;
17858;SDS011;35426;30.698;104.050;2023-07-29T06:45:14;12.02;;;8.80;;
17858;SDS011;35426;30.698;104.050;2023-07-29T06:47:49;14.52;;;9.20;;
17858;SDS011;35426;30.698;104.050;2023-07-29T06:50:27;10.90;;;9.27;;
17858;SDS011;35426;30.698;104.050;2023-07-29T06:53:00;11.57;;;9.55;;
17858;SDS011;35426;30.698;104.050;2023-07-29T06:55:34;15.05;;;11.02;;
17858;SDS011;35426;30.698;104.050;2023-07-29T06:58:09;12.38;;;9.48;;
17858;SDS011;35426;30.698;104.050;2023-07-29T07:00:46;13.68;;;10.32;;
17858;SDS011;35426;30.698;104.050;2023-07-29T07:03:21;15.77;;;10.40;;
17858;SDS011;35426;30.698;104.050;2023-07-29T07:06:00;14.85;;;9.82;;
17858;SDS011;35426;30.698;104.050;2023-07-29T07:08:34;13.02;;;9.15;;
17858;SDS011;35426;30.698;104.050;2023-07-29T07:11:08;14.55;;;8.80;;
17858;SDS011;35426;30.698;104.050;2023-07-29T07:13:42;14.95;;;8.60;;
17858;SDS011;35426;30.698;104.050;2023-07-29T07:16:16;14.68;;;9.02;;
17858;SDS011;35426;30.698;104.050;2023-07-29T07:18:49;17.90;;;9.00;;
17858;SDS011;35426;30.698;104.050;2023-07-29T07:21:26;11.10;;;9.25;;
17858;SDS011;35426;30.698;104.050;2023-07-29T07:24:02;11.93;;;9.05;;
17858;SDS011;35426;30.698;104.050;2023-07-29T07:26:36;12.82;;;9.10;;
17858;SDS011;35426;30.698;104.050;2023-07-29T07:29:09;12.73;;;8.68;;
17858;SDS011;35426;30.698;104.050;2023-07-29T07:31:46;12.32;;;8.30;;
17858;SDS011;35426;30.698;104.050;2023-07-29T07:34:24;12.77;;;8.60;;
17858;SDS011;35426;30.698;104.050;2023-07-29T07:37:01;10.38;;;7.93;;
17858;SDS011;35426;30.698;104.050;2023-07-29T07:39:35;14.07;;;8.27;;
17858;SDS011;35426;30.698;104.050;2023-07-29T07:42:08;12.63;;;8.65;;
17858;SDS011;35426;30.698;104.050;2023-07-29T07:44:43;11.85;;;7.90;;
17858;SDS011;35426;30.698;104.050;2023-07-29T07:47:16;10.68;;;7.95;;
17858;SDS011;35426;30.698;104.050;2023-07-29T07:49:50;8.27;;;7.03;;
17858;SDS011;35426;30.698;104.050;2023-07-29T07:52:26;10.95;;;7.68;;
17858;SDS011;35426;30.698;104.050;2023-07-29T07:55:01;14.00;;;7.45;;
17858;SDS011;35426;30.698;104.050;2023-07-29T07:57:35;11.20;;;7.85;;
17858;SDS011;35426;30.698;104.050;2023-07-29T08:00:09;14.23;;;8.23;;
17858;SDS011;35426;30.698;104.050;2023-07-29T08:02:45;12.10;;;7.93;;
17858;SDS011;35426;30.698;104.050;2023-07-29T08:05:19;11.70;;;7.97;;
17858;SDS011;35426;30.698;104.050;2023-07-29T08:07:57;11.77;;;7.72;;
17858;SDS011;35426;30.698;104.050;2023-07-29T08:10:30;11.65;;;7.70;;
17858;SDS011;35426;30.698;104.050;2023-07-29T08:13:03;12.18;;;7.38;;
17858;SDS011;35426;30.698;104.050;2023-07-29T08:15:36;12.50;;;7.47;;
17858;SDS011;35426;30.698;104.050;2023-07-29T08:18:10;11.27;;;7.45;;
17858;SDS011;35426;30.698;104.050;2023-07-29T08:20:51;12.15;;;8.20;;
17858;SDS011;35426;30.698;104.050;2023-07-29T08:23:29;9.55;;;7.80;;
17858;SDS011;35426;30.698;104.050;2023-07-29T08:26:06;9.75;;;7.72;;
17858;SDS011;35426;30.698;104.050;2023-07-29T08:28:40;9.82;;;7.03;;
17858;SDS011;35426;30.698;104.050;2023-07-29T08:31:14;10.93;;;7.13;;
17858;SDS011;35426;30.698;104.050;2023-07-29T08:33:49;9.43;;;7.15;;
17858;SDS011;35426;30.698;104.050;2023-07-29T08:36:24;15.38;;;7.45;;
17858;SDS011;35426;30.698;104.050;2023-07-29T08:38:59;11.45;;;7.40;;
17858;SDS011;35426;30.698;104.050;2023-07-29T08:41:36;9.20;;;7.07;;
17858;SDS011;35426;30.698;104.050;2023-07-29T08:44:20;11.20;;;6.90;;
17858;SDS011;35426;30.698;104.050;2023-07-29T08:46:54;9.10;;;6.40;;
17858;SDS011;35426;30.698;104.050;2023-07-29T08:49:28;11.02;;;6.47;;
17858;SDS011;35426;30.698;104.050;2023-07-29T08:52:05;7.90;;;6.68;;
17858;SDS011;35426;30.698;104.050;2023-07-29T08:54:43;7.63;;;6.72;;
17858;SDS011;35426;30.698;104.050;2023-07-29T08:57:17;9.50;;;7.35;;
17858;SDS011;35426;30.698;104.050;2023-07-29T08:59:52;8.00;;;6.88;;
17858;SDS011;35426;30.698;104.050;2023-07-29T09:02:27;10.98;;;7.40;;
17858;SDS011;35426;30.698;104.050;2023-07-29T09:05:01;9.85;;;6.70;;
17858;SDS011;35426;30.698;104.050;2023-07-29T09:07:35;9.95;;;7.10;;
17858;SDS011;35426;30.698;104.050;2023-07-29T09:10:13;10.95;;;7.25;;
17858;SDS011;35426;30.698;104.050;2023-07-29T09:12:47;10.32;;;6.80;;
17858;SDS011;35426;30.698;104.050;2023-07-29T09:15:27;10.43;;;7.35;;
17858;SDS011;35426;30.698;104.050;2023-07-29T09:18:11;10.15;;;6.88;;
17858;SDS011;35426;30.698;104.050;2023-07-29T09:20:46;9.27;;;7.03;;
17858;SDS011;35426;30.698;104.050;2023-07-29T09:23:22;10.90;;;7.20;;
17858;SDS011;35426;30.698;104.050;2023-07-29T09:26:07;8.48;;;6.90;;
17858;SDS011;35426;30.698;104.050;2023-07-29T09:28:40;9.27;;;6.90;;
17858;SDS011;35426;30.698;104.050;2023-07-29T09:31:18;8.57;;;6.47;;
17858;SDS011;35426;30.698;104.050;2023-07-29T09:33:56;9.48;;;7.03;;
17858;SDS011;35426;30.698;104.050;2023-07-29T09:36:30;10.68;;;6.25;;
17858;SDS011;35426;30.698;104.050;2023-07-29T09:39:10;8.70;;;6.45;;
17858;SDS011;35426;30.698;104.050;2023-07-29T09:41:49;7.03;;;6.20;;
17858;SDS011;35426;30.698;104.050;2023-07-29T09:44:25;7.35;;;6.18;;
17858;SDS011;35426;30.698;104.050;2023-07-29T09:47:00;8.80;;;6.50;;
17858;SDS011;35426;30.698;104.050;2023-07-29T09:49:35;9.48;;;6.10;;
17858;SDS011;35426;30.698;104.050;2023-07-29T09:52:09;9.43;;;6.25;;
17858;SDS011;35426;30.698;104.050;2023-07-29T09:54:43;10.95;;;6.47;;
17858;SDS011;35426;30.698;104.050;2023-07-29T09:57:19;10.65;;;6.20;;
17858;SDS011;35426;30.698;104.050;2023-07-29T09:59:55;9.35;;;6.10;;
17858;SDS011;35426;30.698;104.050;2023-07-29T10:02:31;9.20;;;6.25;;
17858;SDS011;35426;30.698;104.050;2023-07-29T10:05:06;10.32;;;5.95;;
17858;SDS011;35426;30.698;104.050;2023-07-29T10:07:40;8.82;;;5.88;;
17858;SDS011;35426;30.698;104.050;2023-07-29T10:10:15;8.52;;;6.22;;
17858;SDS011;35426;30.698;104.050;2023-07-29T10:12:50;8.82;;;6.40;;
17858;SDS011;35426;30.698;104.050;2023-07-29T10:15:23;10.88;;;6.28;;
17858;SDS011;35426;30.698;104.050;2023-07-29T10:17:57;10.35;;;6.13;;
17858;SDS011;35426;30.698;104.050;2023-07-29T10:20:31;10.57;;;6.63;;
17858;SDS011;35426;30.698;104.050;2023-07-29T10:23:07;8.35;;;6.07;;
17858;SDS011;35426;30.698;104.050;2023-07-29T10:25:46;8.30;;;6.40;;
17858;SDS011;35426;30.698;104.050;2023-07-29T10:28:23;10.02;;;6.60;;
17858;SDS011;35426;30.698;104.050;2023-07-29T10:31:01;10.15;;;6.43;;
17858;SDS011;35426;30.698;104.050;2023-07-29T10:33:38;7.72;;;6.10;;
17858;SDS011;35426;30.698;104.050;2023-07-29T10:36:13;9.10;;;6.70;;
17858;SDS011;35426;30.698;104.050;2023-07-29T10:38:51;8.25;;;6.47;;
17858;SDS011;35426;30.698;104.050;2023-07-29T10:41:29;11.27;;;6.78;;
17858;SDS011;35426;30.698;104.050;2023-07-29T10:47:26;10.55;;;6.90;;
17858;SDS011;35426;30.698;104.050;2023-07-29T10:50:00;11.10;;;7.22;;
17858;SDS011;35426;30.698;104.050;2023-07-29T10:52:42;11.82;;;6.63;;
17858;SDS011;35426;30.698;104.050;2023-07-29T10:55:24;7.53;;;6.57;;
17858;SDS011;35426;30.698;104.050;2023-07-29T10:58:07;9.70;;;6.72;;
17858;SDS011;35426;30.698;104.050;2023-07-29T11:00:45;14.18;;;7.45;;
17858;SDS011;35426;30.698;104.050;2023-07-29T11:03:20;11.85;;;6.88;;
17858;SDS011;35426;30.698;104.050;2023-07-29T11:05:58;10.23;;;7.50;;
17858;SDS011;35426;30.698;104.050;2023-07-29T11:08:38;11.05;;;7.75;;
17858;SDS011;35426;30.698;104.050;2023-07-29T11:11:14;12.77;;;7.55;;
17858;SDS011;35426;30.698;104.050;2023-07-29T11:13:47;14.20;;;7.20;;
17858;SDS011;35426;30.698;104.050;2023-07-29T11:16:23;9.02;;;7.03;;
17858;SDS011;35426;30.698;104.050;2023-07-29T11:18:57;11.73;;;7.25;;
17858;SDS011;35426;30.698;104.050;2023-07-29T11:21:31;10.70;;;7.35;;
17858;SDS011;35426;30.698;104.050;2023-07-29T11:24:07;14.27;;;7.40;;
17858;SDS011;35426;30.698;104.050;2023-07-29T11:26:46;11.48;;;7.53;;
17858;SDS011;35426;30.698;104.050;2023-07-29T11:29:19;11.52;;;7.28;;
17858;SDS011;35426;30.698;104.050;2023-07-29T11:31:56;14.70;;;7.93;;
17858;SDS011;35426;30.698;104.050;2023-07-29T11:34:31;13.38;;;8.00;;
17858;SDS011;35426;30.698;104.050;2023-07-29T11:37:05;12.80;;;8.25;;
17858;SDS011;35426;30.698;104.050;2023-07-29T11:39:40;11.10;;;8.00;;
17858;SDS011;35426;30.698;104.050;2023-07-29T11:42:14;12.57;;;7.90;;
17858;SDS011;35426;30.698;104.050;2023-07-29T11:44:48;12.60;;;7.90;;
17858;SDS011;35426;30.698;104.050;2023-07-29T11:47:24;11.02;;;7.93;;
17858;SDS011;35426;30.698;104.050;2023-07-29T11:49:58;14.05;;;8.68;;
17858;SDS011;35426;30.698;104.050;2023-07-29T11:52:32;11.18;;;8.30;;
17858;SDS011;35426;30.698;104.050;2023-07-29T11:55:06;13.57;;;8.88;;
17858;SDS011;35426;30.698;104.050;2023-07-29T11:57:40;14.25;;;8.52;;
17858;SDS011;35426;30.698;104.050;2023-07-29T12:00:15;17.27;;;9.43;;
17858;SDS011;35426;30.698;104.050;2023-07-29T12:02:50;15.90;;;9.43;;
17858;SDS011;35426;30.698;104.050;2023-07-29T12:05:25;12.00;;;8.45;;
17858;SDS011;35426;30.698;104.050;2023-07-29T12:07:58;14.73;;;9.40;;
17858;SDS011;35426;30.698;104.050;2023-07-29T12:10:33;13.05;;;9.10;;
17858;SDS011;35426;30.698;104.050;2023-07-29T12:13:10;10.65;;;8.73;;
17858;SDS011;35426;30.698;104.050;2023-07-29T12:15:44;15.50;;;8.88;;
17858;SDS011;35426;30.698;104.050;2023-07-29T12:18:32;12.30;;;9.80;;
17858;SDS011;35426;30.698;104.050;2023-07-29T12:21:07;12.50;;;9.77;;
17858;SDS011;35426;30.698;104.050;2023-07-29T12:23:41;15.65;;;9.90;;
17858;SDS011;35426;30.698;104.050;2023-07-29T12:26:16;14.30;;;10.80;;
17858;SDS011;35426;30.698;104.050;2023-07-29T12:28:51;13.48;;;9.63;;
17858;SDS011;35426;30.698;104.050;2023-07-29T12:31:33;14.07;;;9.70;;
17858;SDS011;35426;30.698;104.050;2023-07-29T12:34:16;15.85;;;10.02;;
17858;SDS011;35426;30.698;104.050;2023-07-29T12:36:52;13.27;;;9.85;;
17858;SDS011;35426;30.698;104.050;2023-07-29T12:39:26;16.67;;;9.88;;
17858;SDS011;35426;30.698;104.050;2023-07-29T12:42:00;15.23;;;10.50;;
17858;SDS011;35426;30.698;104.050;2023-07-29T12:44:35;15.52;;;9.57;;
17858;SDS011;35426;30.698;104.050;2023-07-29T12:47:12;15.00;;;10.50;;
17858;SDS011;35426;30.698;104.050;2023-07-29T12:49:50;18.17;;;11.27;;
17858;SDS011;35426;30.698;104.050;2023-07-29T12:52:24;16.60;;;9.98;;
17858;SDS011;35426;30.698;104.050;2023-07-29T12:54:57;14.20;;;10.15;;
17858;SDS011;35426;30.698;104.050;2023-07-29T12:57:41;17.80;;;10.77;;
17858;SDS011;35426;30.698;104.050;2023-07-29T13:00:15;16.55;;;10.27;;
17858;SDS011;35426;30.698;104.050;2023-07-29T13:02:48;16.08;;;11.05;;
17858;SDS011;35426;30.698;104.050;2023-07-29T13:05:23;17.80;;;11.23;;
17858;SDS011;35426;30.698;104.050;2023-07-29T13:07:56;18.52;;;10.82;;
17858;SDS011;35426;30.698;104.050;2023-07-29T13:10:29;14.93;;;10.35;;
17858;SDS011;35426;30.698;104.050;2023-07-29T13:13:03;18.05;;;11.15;;
17858;SDS011;35426;30.698;104.050;2023-07-29T13:15:37;13.73;;;10.18;;
17858;SDS011;35426;30.698;104.050;2023-07-29T13:18:10;15.07;;;10.48;;
17858;SDS011;35426;30.698;104.050;2023-07-29T13:20:44;15.65;;;10.05;;
17858;SDS011;35426;30.698;104.050;2023-07-29T13:23:17;18.55;;;10.32;;
17858;SDS011;35426;30.698;104.050;2023-07-29T13:25:51;13.02;;;9.60;;
17858;SDS011;35426;30.698;104.050;2023-07-29T13:28:26;15.65;;;9.38;;
17858;SDS011;35426;30.698;104.050;2023-07-29T13:30:59;11.30;;;9.65;;
17858;SDS011;35426;30.698;104.050;2023-07-29T13:33:32;14.43;;;9.10;;
17858;SDS011;35426;30.698;104.050;2023-07-29T13:36:08;15.90;;;8.88;;
17858;SDS011;35426;30.698;104.050;2023-07-29T13:38:41;15.30;;;9.07;;
17858;SDS011;35426;30.698;104.050;2023-07-29T13:41:14;15.98;;;9.45;;
17858;SDS011;35426;30.698;104.050;2023-07-29T13:43:47;19.48;;;9.75;;
17858;SDS011;35426;30.698;104.050;2023-07-29T13:46:22;14.40;;;9.20;;
17858;SDS011;35426;30.698;104.050;2023-07-29T13:48:59;12.60;;;8.80;;
17858;SDS011;35426;30.698;104.050;2023-07-29T13:51:35;14.50;;;8.23;;
17858;SDS011;35426;30.698;104.050;2023-07-29T13:54:09;16.20;;;9.20;;
17858;SDS011;35426;30.698;104.050;2023-07-29T13:56:43;14.52;;;8.68;;
17858;SDS011;35426;30.698;104.050;2023-07-29T13:59:16;13.57;;;8.88;;
17858;SDS011;35426;30.698;104.050;2023-07-29T14:01:51;14.60;;;8.68;;
17858;SDS011;35426;30.698;104.050;2023-07-29T14:04:25;16.33;;;9.05;;
17858;SDS011;35426;30.698;104.050;2023-07-29T14:07:00;15.88;;;8.88;;
17858;SDS011;35426;30.698;104.050;2023-07-29T14:09:35;12.73;;;8.77;;
17858;SDS011;35426;30.698;104.050;2023-07-29T14:12:09;14.82;;;9.15;;
17858;SDS011;35426;30.698;104.050;2023-07-29T14:14:46;17.33;;;9.00;;
17858;SDS011;35426;30.698;104.050;2023-07-29T14:17:20;13.15;;;9.00;;
17858;SDS011;35426;30.698;104.050;2023-07-29T14:19:54;14.27;;;9.45;;
17858;SDS011;35426;30.698;104.050;2023-07-29T14:22:31;18.63;;;9.45;;
17858;SDS011;35426;30.698;104.050;2023-07-29T14:25:05;13.00;;;8.90;;
17858;SDS011;35426;30.698;104.050;2023-07-29T14:27:40;17.15;;;9.55;;
17858;SDS011;35426;30.698;104.050;2023-07-29T14:30:13;16.25;;;9.70;;
17858;SDS011;35426;30.698;104.050;2023-07-29T14:32:53;16.13;;;9.50;;
17858;SDS011;35426;30.698;104.050;2023-07-29T14:35:27;16.75;;;9.70;;
17858;SDS011;35426;30.698;104.050;2023-07-29T14:38:02;16.38;;;9.95;;
17858;SDS011;35426;30.698;104.050;2023-07-29T14:40:37;17.75;;;9.20;;
17858;SDS011;35426;30.698;104.050;2023-07-29T14:43:14;15.30;;;9.40;;
17858;SDS011;35426;30.698;104.050;2023-07-29T14:45:58;14.88;;;9.10;;
17858;SDS011;35426;30.698;104.050;2023-07-29T14:48:32;17.55;;;9.90;;
17858;SDS011;35426;30.698;104.050;2023-07-29T14:51:07;15.85;;;9.05;;